Terminal Aerodrome Forecast
Issued by NWS

Home | Current Version | Previous Version | Graphics & Text | Print | Product List | Glossary On
Versions: 1 2 3 4 5 6 7 8 9 10 11 12 13 14 15 16 17 18 19 20 21 22 23 24 25 26 27 28
000
FTUS45 KGGW 031100
TAFOLF
TAF
KOLF 031126Z 0312/0412 31015KT P6SM SCT035
     FM031800 30023G33KT P6SM BKN035
     FM040300 30016KT P6SM BKN045
     FM040600 32015KT P6SM SCT080=

USA.gov is the U.S. government's official web portal to all federal, state and local government web resources and services.